Time;durP1;ratioP1;P1;durP2;ratioP2;P2;SDS_P1;SDS_P2;PMS_P1;PMS_P2;Temp;Humidity;BMP_temperature;BMP_pressure;BME280_temperature;BME280_humidity;BME280_pressure;Samples;Min_cycle;Max_cycle;Signal;HPM_P1;HPM_P2
2021/01/13 06:26:51;;;;;;;0.35;0.30;;;18.40;72.10;;;;;;5125783;27;20882;-34
2021/01/13 06:29:22;;;;;;;1.48;0.30;;;18.70;70.70;;;;;;5108382;28;20035;-38
2021/01/13 06:31:48;;;;;;;0.82;0.40;;;18.70;69.90;;;;;;5120040;27;20032;-34
2021/01/13 06:34:25;;;;;;;3.70;0.52;;;18.70;69.80;;;;;;5096118;28;20450;-33
2021/01/13 06:37:12;;;;;;;2.15;0.43;;;18.80;69.80;;;;;;5096622;28;20028;-37
2021/01/13 06:39:38;;;;;;;0.63;0.40;;;18.80;69.70;;;;;;5121739;27;20064;-39
2021/01/13 06:42:04;;;;;;;1.20;0.40;;;18.80;69.70;;;;;;5104818;28;20090;-34
2021/01/13 06:44:45;;;;;;;0.40;0.30;;;18.80;69.40;;;;;;5109627;28;20047;-36
2021/01/13 06:47:11;;;;;;;2.35;0.88;;;18.80;69.00;;;;;;5124803;27;20114;-36
2021/01/13 06:49:36;;;;;;;0.63;0.40;;;18.80;68.30;;;;;;5122528;28;20145;-33
2021/01/13 06:52:02;;;;;;;0.30;0.30;;;18.80;68.10;;;;;;5120288;28;20166;-35
2021/01/13 06:54:27;;;;;;;2.05;0.40;;;18.80;68.60;;;;;;5104189;28;20038;-36
2021/01/13 06:56:58;;;;;;;0.55;0.30;;;18.80;68.60;;;;;;5108349;28;20607;-36
2021/01/13 06:59:24;;;;;;;2.40;0.50;;;18.80;68.60;;;;;;5107336;28;20412;-35
2021/01/13 07:01:57;;;;;;;1.48;0.40;;;18.80;68.60;;;;;;5114101;28;20135;-35
2021/01/13 07:04:23;;;;;;;1.40;0.50;;;18.80;68.50;;;;;;5114725;28;20085;-37
2021/01/13 07:07:05;;;;;;;2.80;0.60;;;18.80;68.30;;;;;;5116308;28;20125;-36
2021/01/13 07:09:50;;;;;;;0.50;0.45;;;18.80;68.20;;;;;;5121896;28;20028;-36
2021/01/13 07:12:26;;;;;;;2.53;0.60;;;18.80;68.00;;;;;;5125210;27;20023;-36
2021/01/13 07:14:54;;;;;;;0.50;0.50;;;18.80;67.80;;;;;;4765763;27;9999672;-38
2021/01/13 07:17:24;;;;;;;0.45;0.32;;;18.80;67.80;;;;;;5107830;28;20055;-38
2021/01/13 07:19:52;;;;;;;0.55;0.30;;;18.80;67.70;;;;;;5119865;28;20015;-36
2021/01/13 07:22:19;;;;;;;0.45;0.40;;;18.80;67.60;;;;;;5121553;28;20035;-34
2021/01/13 07:24:45;;;;;;;0.60;0.40;;;18.80;67.50;;;;;;5117471;28;20071;-39
2021/01/13 07:27:12;;;;;;;1.38;0.40;;;18.80;67.60;;;;;;5109596;28;20119;-42
2021/01/13 07:29:37;;;;;;;0.63;0.50;;;18.80;67.50;;;;;;5107277;28;20032;-39
2021/01/13 07:32:04;;;;;;;0.88;0.47;;;18.70;67.40;;;;;;5106222;28;20054;-44
2021/01/13 07:34:34;;;;;;;0.73;0.40;;;18.70;67.50;;;;;;5103428;28;20175;-37
2021/01/13 07:37:06;;;;;;;0.40;0.40;;;18.70;67.50;;;;;;5089230;28;20821;-36
2021/01/13 07:39:59;;;;;;;3.70;0.60;;;18.80;67.10;;;;;;5106084;28;20028;-34
2021/01/13 07:42:41;;;;;;;0.25;0.25;;;18.80;67.00;;;;;;5104657;28;20059;-37
2021/01/13 07:45:16;;;;;;;2.22;0.40;;;18.80;67.00;;;;;;5102633;28;20191;-35
2021/01/13 07:50:40;;;;;;;0.40;0.28;;;18.80;66.30;;;;;;5098730;27;20357;-36
2021/01/13 07:53:09;;;;;;;1.55;0.50;;;18.80;66.70;;;;;;5102179;28;20482;-37
2021/01/13 07:55:36;;;;;;;0.47;0.32;;;18.80;66.40;;;;;;5099801;28;20065;-41
2021/01/13 07:58:03;;;;;;;0.20;0.20;;;18.80;66.30;;;;;;5097830;28;20035;-43
2021/01/13 08:00:32;;;;;;;0.40;0.40;;;18.80;66.60;;;;;;5081551;28;20024;-47
2021/01/13 08:03:26;;;;;;;0.75;0.50;;;18.80;66.00;;;;;;5098164;28;20509;-37
2021/01/13 08:05:57;;;;;;;0.90;0.45;;;18.80;66.20;;;;;;5096146;28;20044;-38
2021/01/13 08:08:24;;;;;;;0.82;0.50;;;18.80;65.90;;;;;;5101036;28;20106;-36
2021/01/13 08:10:53;;;;;;;0.57;0.35;;;18.80;66.10;;;;;;5101961;28;20044;-37
2021/01/13 08:13:38;;;;;;;2.28;0.50;;;18.70;65.50;;;;;;5098992;28;20031;-38
2021/01/13 08:16:17;;;;;;;1.15;0.50;;;18.70;66.10;;;;;;5096900;28;20103;-37
2021/01/13 08:18:56;;;;;;;0.85;0.25;;;18.80;67.00;;;;;;5103048;28;20066;-35
2021/01/13 08:24:09;;;;;;;2.33;0.60;;;18.70;65.50;;;;;;5100694;28;20482;-40
2021/01/13 08:26:36;;;;;;;0.40;0.40;;;18.70;65.60;;;;;;5101213;28;20126;-36
2021/01/13 08:29:02;;;;;;;0.55;0.52;;;18.70;66.20;;;;;;5103858;28;20035;-43
2021/01/13 08:31:28;;;;;;;0.52;0.52;;;18.70;65.60;;;;;;5101324;28;20023;-35
2021/01/13 08:34:10;;;;;;;1.30;0.45;;;18.70;65.20;;;;;;5102336;28;20024;-37
2021/01/13 08:36:36;;;;;;;1.48;0.50;;;18.70;65.10;;;;;;5101576;28;20118;-36
2021/01/13 08:39:04;;;;;;;1.15;0.65;;;18.70;65.20;;;;;;5102202;28;20487;-36
2021/01/13 08:41:30;;;;;;;4.25;0.80;;;18.70;65.30;;;;;;5101377;28;20028;-36
2021/01/13 08:44:07;;;;;;;0.77;0.40;;;18.70;65.20;;;;;;5102697;28;20501;-37
2021/01/13 08:46:41;;;;;;;0.40;0.40;;;18.70;65.00;;;;;;5100184;28;20026;-37
2021/01/13 08:49:07;;;;;;;0.80;0.43;;;18.80;64.90;;;;;;5101067;28;20048;-36
2021/01/13 08:51:36;;;;;;;0.60;0.38;;;18.80;65.40;;;;;;5101948;28;20019;-37
2021/01/13 08:54:28;;;;;;;0.50;0.50;;;18.80;64.80;;;;;;5099967;28;20491;-41
2021/01/13 08:56:57;;;;;;;0.60;0.50;;;18.80;64.70;;;;;;5098187;28;20127;-36
2021/01/13 08:59:33;;;;;;;0.55;0.50;;;18.80;64.90;;;;;;5103588;28;20031;-38
2021/01/13 09:02:02;;;;;;;0.28;0.28;;;18.80;64.80;;;;;;5087705;28;20028;-36
2021/01/13 09:04:29;;;;;;;1.75;0.40;;;18.80;64.50;;;;;;5084011;28;20089;-35
2021/01/13 09:07:00;;;;;;;2.00;0.70;;;18.80;64.70;;;;;;5071256;28;20387;-39
2021/01/13 09:09:29;;;;;;;1.23;0.25;;;18.80;64.50;;;;;;5071144;28;20147;-35
2021/01/13 09:11:55;;;;;;;0.60;0.40;;;18.80;64.60;;;;;;5087741;28;20020;-36
2021/01/13 09:14:24;;;;;;;0.40;0.40;;;18.80;64.50;;;;;;5088024;28;20032;-36
2021/01/13 09:16:53;;;;;;;1.88;0.55;;;18.80;64.40;;;;;;5089175;28;20035;-37
2021/01/13 09:19:30;;;;;;;0.32;0.32;;;18.80;64.30;;;;;;5087250;28;20503;-39
2021/01/13 09:22:00;;;;;;;1.60;0.60;;;18.80;64.40;;;;;;5082521;28;20058;-37
2021/01/13 09:24:26;;;;;;;0.50;0.40;;;18.80;64.30;;;;;;5081365;28;20032;-39
2021/01/13 09:26:56;;;;;;;0.47;0.30;;;18.80;64.40;;;;;;5080768;28;20066;-38
2021/01/13 09:29:22;;;;;;;0.40;0.40;;;18.80;64.00;;;;;;5087946;28;20113;-34
2021/01/13 09:32:10;;;;;;;0.40;0.40;;;18.80;64.00;;;;;;5087508;28;20061;-43
2021/01/13 09:34:36;;;;;;;0.35;0.35;;;18.90;64.60;;;;;;5083951;28;20032;-45
2021/01/13 09:37:02;;;;;;;0.52;0.40;;;18.80;64.80;;;;;;5086187;28;20036;-33
2021/01/13 09:39:35;;;;;;;0.30;0.30;;;18.80;64.20;;;;;;5086072;28;20044;-37
2021/01/13 09:42:02;;;;;;;0.50;0.50;;;18.80;64.00;;;;;;5083756;28;20039;-35
2021/01/13 09:44:33;;;;;;;0.25;0.25;;;18.80;64.00;;;;;;5085394;28;20628;-35
2021/01/13 09:46:59;;;;;;;0.70;0.30;;;18.80;63.80;;;;;;5086967;28;20430;-37
2021/01/13 09:49:25;;;;;;;1.58;0.20;;;18.80;63.80;;;;;;5086546;28;20094;-37
2021/01/13 09:51:50;;;;;;;0.50;0.43;;;18.80;64.00;;;;;;5086598;28;20032;-36
2021/01/13 09:54:21;;;;;;;0.40;0.40;;;18.80;63.80;;;;;;5085425;28;20028;-38
2021/01/13 09:56:46;;;;;;;0.57;0.30;;;18.80;63.90;;;;;;5084291;28;20482;-38
2021/01/13 09:59:12;;;;;;;0.82;0.57;;;18.80;63.90;;;;;;5087205;28;20038;-35
2021/01/13 10:01:38;;;;;;;0.50;0.50;;;18.80;64.00;;;;;;5087102;28;20043;-36
2021/01/13 10:04:12;;;;;;;0.50;0.40;;;18.90;64.90;;;;;;5084072;28;20042;-37
2021/01/13 10:06:42;;;;;;;3.97;0.70;;;18.90;64.40;;;;;;5085001;28;20105;-42
2021/01/13 10:09:12;;;;;;;3.42;1.70;;;18.90;64.60;;;;;;5086354;28;20056;-36
2021/01/13 10:11:38;;;;;;;4.72;1.90;;;18.90;65.10;;;;;;5074366;28;20080;-36
2021/01/13 10:14:05;;;;;;;2.13;0.95;;;19.00;65.30;;;;;;5063134;28;20048;-38
2021/01/13 10:16:30;;;;;;;3.03;1.40;;;19.00;65.10;;;;;;5050358;28;20048;-35
2021/01/13 10:18:58;;;;;;;1.77;1.13;;;19.00;65.10;;;;;;5061087;28;20408;-36
2021/01/13 10:21:24;;;;;;;0.82;0.80;;;19.00;65.10;;;;;;5061043;28;20049;-38
2021/01/13 10:23:50;;;;;;;1.98;1.38;;;19.00;65.10;;;;;;5056036;28;20036;-38
2021/01/13 10:26:15;;;;;;;4.43;1.13;;;19.00;65.20;;;;;;5059758;28;20077;-44
2021/01/13 10:28:41;;;;;;;3.03;0.80;;;19.00;65.30;;;;;;5061954;28;20132;-39
2021/01/13 10:31:09;;;;;;;3.58;0.80;;;19.00;65.50;;;;;;5063252;28;20052;-40
2021/01/13 10:33:50;;;;;;;1.30;1.10;;;18.90;65.70;;;;;;5067508;28;20064;-37
2021/01/13 10:36:40;;;;;;;1.25;0.90;;;18.90;65.80;;;;;;5061773;28;20094;-40
2021/01/13 10:39:21;;;;;;;3.13;1.25;;;19.00;65.20;;;;;;5058270;28;20040;-38
2021/01/13 10:41:54;;;;;;;3.25;1.17;;;19.00;65.10;;;;;;5063382;28;20041;-37
2021/01/13 10:44:21;;;;;;;3.05;1.20;;;19.00;64.90;;;;;;5070065;28;20106;-40
2021/01/13 10:46:48;;;;;;;2.75;1.13;;;19.00;64.70;;;;;;5063274;28;20045;-37
2021/01/13 10:49:22;;;;;;;1.75;0.93;;;19.00;64.80;;;;;;5057969;28;20127;-37
2021/01/13 10:51:50;;;;;;;2.75;1.30;;;19.00;65.20;;;;;;5055861;28;20036;-49
2021/01/13 10:54:23;;;;;;;1.60;1.15;;;19.00;65.20;;;;;;5060330;28;20107;-39
2021/01/13 10:56:57;;;;;;;1.00;0.83;;;19.10;65.00;;;;;;5060492;28;20123;-35
2021/01/13 10:59:23;;;;;;;1.75;1.13;;;19.10;64.70;;;;;;5065841;28;20381;-38
2021/01/13 11:01:50;;;;;;;0.80;0.70;;;19.10;65.10;;;;;;5067542;28;20051;-38
2021/01/13 11:04:26;;;;;;;1.80;0.95;;;19.10;66.00;;;;;;5057344;28;20420;-38
2021/01/13 11:07:00;;;;;;;2.42;1.13;;;19.10;65.70;;;;;;5064742;28;20040;-38
2021/01/13 11:09:25;;;;;;;2.55;1.20;;;19.20;67.70;;;;;;5056547;28;20474;-40
2021/01/13 11:11:52;;;;;;;2.10;1.20;;;19.20;67.80;;;;;;5061475;28;20041;-37
2021/01/13 11:14:33;;;;;;;3.78;1.00;;;19.20;70.00;;;;;;5063992;28;20048;-39
2021/01/13 11:17:11;;;;;;;2.78;1.00;;;19.20;68.40;;;;;;5069313;28;20044;-39
2021/01/13 11:19:41;;;;;;;1.63;1.15;;;19.20;70.40;;;;;;5047716;28;20048;-40
2021/01/13 11:22:07;;;;;;;2.40;0.95;;;19.20;69.50;;;;;;5052785;28;20052;-45
2021/01/13 11:24:43;;;;;;;1.33;1.20;;;19.20;70.40;;;;;;5045431;28;20045;-41
2021/01/13 11:27:11;;;;;;;2.20;1.20;;;19.20;70.10;;;;;;4711475;28;10000497;-42
2021/01/13 11:29:38;;;;;;;0.90;0.90;;;19.20;70.80;;;;;;5067272;28;20036;-38
2021/01/13 11:32:05;;;;;;;1.60;1.13;;;19.20;69.80;;;;;;5044702;28;20068;-40
2021/01/13 11:34:31;;;;;;;2.00;1.30;;;19.20;70.00;;;;;;5050051;28;20057;-37
2021/01/13 11:37:08;;;;;;;1.60;1.50;;;19.20;69.40;;;;;;5060662;28;20121;-40
2021/01/13 11:39:34;;;;;;;2.22;1.25;;;19.20;68.50;;;;;;5044946;28;20041;-40
2021/01/13 11:42:32;;;;;;;2.63;1.40;;;19.20;68.30;;;;;;5054731;28;20119;-39
2021/01/13 11:45:19;;;;;;;3.25;1.40;;;19.20;69.30;;;;;;4983791;28;20124;-41
2021/01/13 11:47:53;;;;;;;1.17;1.08;;;19.20;68.30;;;;;;4980246;28;20123;-38
2021/01/13 11:50:21;;;;;;;2.70;1.25;;;19.30;69.50;;;;;;4966183;28;20054;-40
2021/01/13 11:52:49;;;;;;;4.97;1.40;;;19.30;68.30;;;;;;4981583;28;20035;-41
2021/01/13 11:55:14;;;;;;;1.63;1.00;;;19.30;68.20;;;;;;4979273;28;20156;-39
2021/01/13 11:57:45;;;;;;;1.45;0.80;;;19.30;70.10;;;;;;4982074;28;20118;-39
2021/01/13 12:00:15;;;;;;;1.67;1.00;;;19.30;69.00;;;;;;4982186;28;20030;-37
2021/01/13 12:02:41;;;;;;;3.75;1.27;;;19.30;68.10;;;;;;4982192;28;20072;-37
2021/01/13 12:05:07;;;;;;;1.30;0.90;;;19.30;70.50;;;;;;4982210;28;20038;-34
2021/01/13 12:07:33;;;;;;;3.40;1.00;;;19.40;70.50;;;;;;4979528;28;20026;-37
2021/01/13 12:10:12;;;;;;;2.35;1.10;;;19.40;70.00;;;;;;4962224;28;20119;-47
2021/01/13 12:12:37;;;;;;;1.92;1.00;;;19.40;69.50;;;;;;4981248;28;20026;-37
2021/01/13 12:15:07;;;;;;;3.25;1.00;;;19.40;69.40;;;;;;4977002;28;20046;-40
2021/01/13 12:17:33;;;;;;;1.42;0.95;;;19.40;69.30;;;;;;4980516;28;20046;-36
2021/01/13 12:19:59;;;;;;;7.60;1.50;;;19.40;68.30;;;;;;4968215;28;20035;-42
2021/01/13 12:22:35;;;;;;;1.02;0.90;;;19.40;68.80;;;;;;5035453;28;20845;-40
2021/01/13 12:25:00;;;;;;;1.67;1.00;;;19.30;68.70;;;;;;5044033;28;20021;-43
2021/01/13 12:27:27;;;;;;;4.30;1.10;;;19.30;68.60;;;;;;5046030;28;20090;-36
2021/01/13 12:30:09;;;;;;;4.43;0.98;;;19.30;68.40;;;;;;5047520;28;20060;-39
2021/01/13 12:32:35;;;;;;;1.23;0.90;;;19.30;68.70;;;;;;5048324;28;20389;-47
2021/01/13 12:35:00;;;;;;;2.30;0.80;;;19.20;67.40;;;;;;5047921;28;20041;-39
2021/01/13 12:37:26;;;;;;;1.30;1.00;;;19.30;67.30;;;;;;5049899;28;20028;-37
2021/01/13 12:39:55;;;;;;;3.45;0.80;;;19.20;67.80;;;;;;5049394;28;20032;-35
2021/01/13 12:42:21;;;;;;;1.08;0.80;;;19.30;67.80;;;;;;5054265;28;20023;-36
2021/01/13 12:44:47;;;;;;;2.92;1.00;;;19.30;67.40;;;;;;5044408;28;20033;-38
2021/01/13 12:47:12;;;;;;;1.48;1.02;;;19.30;66.80;;;;;;5050241;28;20031;-37
2021/01/13 12:49:38;;;;;;;1.20;0.80;;;19.30;66.70;;;;;;5048655;28;20123;-39
2021/01/13 12:52:04;;;;;;;2.28;0.80;;;19.40;66.20;;;;;;5047834;28;20060;-37
2021/01/13 12:54:29;;;;;;;1.10;1.00;;;19.30;66.20;;;;;;5051103;28;20035;-37
2021/01/13 12:56:55;;;;;;;1.73;0.60;;;19.30;66.00;;;;;;5048289;28;20029;-39
2021/01/13 12:59:20;;;;;;;1.80;0.85;;;19.40;65.70;;;;;;5050940;28;20438;-36
2021/01/13 13:01:47;;;;;;;0.73;0.70;;;19.40;65.90;;;;;;5050477;28;20025;-36
2021/01/13 13:04:13;;;;;;;1.33;0.80;;;19.30;66.10;;;;;;5050017;28;20072;-39
2021/01/13 13:06:39;;;;;;;2.35;0.90;;;19.30;65.40;;;;;;5049574;28;20032;-37
2021/01/13 13:09:08;;;;;;;2.38;0.88;;;19.30;65.30;;;;;;5045973;28;20029;-36
2021/01/13 13:11:34;;;;;;;0.93;0.88;;;19.30;67.00;;;;;;4695704;28;10000346;-39
2021/01/13 13:14:00;;;;;;;0.93;0.63;;;19.30;66.80;;;;;;5049184;28;20033;-38
2021/01/13 13:16:26;;;;;;;5.80;0.90;;;19.30;66.70;;;;;;5046157;28;20040;-39
2021/01/13 13:18:54;;;;;;;1.08;0.70;;;19.30;66.60;;;;;;5048566;28;20025;-41
2021/01/13 13:21:21;;;;;;;3.05;1.00;;;19.30;66.40;;;;;;5049851;28;20033;-38
2021/01/13 13:23:47;;;;;;;2.10;1.05;;;19.30;66.00;;;;;;5050043;28;20018;-37
2021/01/13 13:26:12;;;;;;;1.00;0.90;;;19.30;66.60;;;;;;5052659;28;20400;-43
2021/01/13 13:28:38;;;;;;;1.63;0.60;;;19.30;65.90;;;;;;5051916;28;20488;-37
2021/01/13 13:31:05;;;;;;;2.47;0.93;;;19.30;66.20;;;;;;5048561;28;20447;-36
2021/01/13 13:33:30;;;;;;;2.25;0.73;;;19.30;66.30;;;;;;5049835;28;20032;-38
2021/01/13 13:35:56;;;;;;;1.00;0.68;;;19.30;65.80;;;;;;5049410;28;20052;-38
2021/01/13 13:38:21;;;;;;;0.88;0.60;;;19.30;65.50;;;;;;5051004;28;20017;-38
2021/01/13 13:40:47;;;;;;;1.40;0.88;;;19.40;65.20;;;;;;5051092;28;20040;-37
2021/01/13 13:43:13;;;;;;;1.75;1.15;;;19.40;65.00;;;;;;5048963;28;20395;-38
2021/01/13 13:45:39;;;;;;;1.23;0.57;;;19.40;65.50;;;;;;5048374;28;20037;-35
2021/01/13 13:48:04;;;;;;;2.50;0.70;;;19.40;66.20;;;;;;5045336;28;20025;-38
2021/01/13 13:50:30;;;;;;;1.27;0.77;;;19.40;65.00;;;;;;5048624;28;20057;-39
2021/01/13 13:52:56;;;;;;;2.80;0.52;;;19.30;65.60;;;;;;5052034;28;20032;-41
2021/01/13 13:55:21;;;;;;;0.57;0.55;;;19.30;65.60;;;;;;5047384;28;20103;-39
2021/01/13 13:57:47;;;;;;;1.60;0.88;;;19.30;65.00;;;;;;5048660;28;20159;-37
2021/01/13 14:00:13;;;;;;;0.75;0.50;;;19.30;64.90;;;;;;5048943;28;20017;-36
2021/01/13 14:02:38;;;;;;;0.57;0.35;;;19.30;65.50;;;;;;5052107;28;20024;-36
2021/01/13 14:05:05;;;;;;;0.73;0.50;;;19.30;65.40;;;;;;5051104;28;20037;-38
2021/01/13 14:07:31;;;;;;;2.40;0.50;;;19.30;65.50;;;;;;5047917;28;20047;-38
2021/01/13 14:09:56;;;;;;;2.05;0.50;;;19.20;65.40;;;;;;5048598;28;20488;-36
2021/01/13 14:12:22;;;;;;;0.90;0.50;;;19.20;65.50;;;;;;5047983;28;20032;-36
2021/01/13 14:14:48;;;;;;;2.63;0.70;;;19.20;65.20;;;;;;5049307;28;20036;-40
2021/01/13 14:17:14;;;;;;;0.55;0.50;;;19.20;65.30;;;;;;5048061;28;20033;-38
2021/01/13 14:19:40;;;;;;;0.60;0.50;;;19.20;65.00;;;;;;5048967;28;20040;-38
2021/01/13 14:22:05;;;;;;;0.90;0.45;;;19.20;65.30;;;;;;5048329;28;20033;-39
2021/01/13 14:24:31;;;;;;;3.10;0.70;;;19.20;65.30;;;;;;5048802;28;20037;-38
2021/01/13 14:27:00;;;;;;;0.98;0.88;;;19.20;65.20;;;;;;5048504;28;20083;-37
2021/01/13 14:29:26;;;;;;;1.38;0.40;;;19.20;65.10;;;;;;5047921;28;20049;-40
2021/01/13 14:31:51;;;;;;;0.70;0.40;;;19.20;65.00;;;;;;5051167;28;20024;-40
2021/01/13 14:34:17;;;;;;;1.65;0.40;;;19.20;65.30;;;;;;5049217;28;20029;-40
2021/01/13 14:36:43;;;;;;;0.50;0.40;;;19.20;65.20;;;;;;5048624;28;20044;-37
2021/01/13 14:39:08;;;;;;;2.25;0.60;;;19.20;65.00;;;;;;5050424;28;20573;-39
2021/01/13 14:41:34;;;;;;;1.13;0.57;;;19.20;64.90;;;;;;5049260;28;20048;-41
2021/01/13 14:44:00;;;;;;;0.70;0.57;;;19.20;64.80;;;;;;5052441;28;20396;-36
2021/01/13 14:46:26;;;;;;;0.50;0.30;;;19.20;64.70;;;;;;5044040;28;20036;-38
2021/01/13 14:48:51;;;;;;;1.15;0.43;;;19.20;65.00;;;;;;5045998;28;20052;-39
2021/01/13 14:51:17;;;;;;;1.48;0.50;;;19.20;64.80;;;;;;5045696;28;20021;-37
2021/01/13 14:53:43;;;;;;;2.25;0.50;;;19.20;65.10;;;;;;5044455;28;20532;-37
2021/01/13 14:56:08;;;;;;;1.35;0.40;;;19.20;65.10;;;;;;5049660;28;20500;-39
2021/01/13 14:58:35;;;;;;;0.70;0.40;;;19.20;64.80;;;;;;5047239;28;20033;-37
2021/01/13 15:01:01;;;;;;;0.88;0.60;;;19.30;64.70;;;;;;5045534;28;20029;-41
2021/01/13 15:03:26;;;;;;;1.08;0.63;;;19.30;64.00;;;;;;5045698;28;20029;-39
2021/01/13 15:05:52;;;;;;;0.60;0.32;;;19.30;64.50;;;;;;5042431;28;20404;-40
2021/01/13 15:08:17;;;;;;;0.47;0.30;;;19.30;64.20;;;;;;5046880;28;20082;-37
2021/01/13 15:10:43;;;;;;;0.68;0.50;;;19.20;64.40;;;;;;5042989;28;20393;-36
2021/01/13 15:13:09;;;;;;;0.75;0.50;;;19.20;64.40;;;;;;5045298;28;20064;-40
2021/01/13 15:15:34;;;;;;;0.95;0.40;;;19.20;64.50;;;;;;5044631;28;20021;-38
2021/01/13 15:18:00;;;;;;;0.57;0.50;;;19.20;64.50;;;;;;5043212;28;20559;-41
2021/01/13 15:20:25;;;;;;;0.73;0.55;;;19.20;64.40;;;;;;5044621;28;20115;-38
2021/01/13 15:22:51;;;;;;;0.70;0.50;;;19.20;64.40;;;;;;5046178;28;20025;-38
2021/01/13 15:25:17;;;;;;;0.90;0.50;;;19.20;64.50;;;;;;5044382;28;20082;-39
2021/01/13 15:27:46;;;;;;;0.60;0.60;;;19.30;64.40;;;;;;5044461;28;20060;-40
2021/01/13 15:30:12;;;;;;;0.70;0.43;;;19.30;64.20;;;;;;5042965;28;20064;-37
2021/01/13 15:32:38;;;;;;;0.88;0.40;;;19.30;64.10;;;;;;5045423;28;20031;-39
2021/01/13 15:35:05;;;;;;;0.45;0.40;;;19.20;64.20;;;;;;5049969;28;20056;-48
2021/01/13 15:37:30;;;;;;;0.55;0.40;;;19.20;64.20;;;;;;5045306;28;20025;-38
2021/01/13 15:39:57;;;;;;;0.40;0.40;;;19.30;64.20;;;;;;5044833;28;20090;-37
2021/01/13 15:42:22;;;;;;;1.00;0.50;;;19.30;64.10;;;;;;5045764;28;20033;-37
2021/01/13 15:44:48;;;;;;;0.77;0.50;;;19.20;64.20;;;;;;5042112;28;20101;-38
2021/01/13 15:47:17;;;;;;;0.70;0.43;;;19.20;64.00;;;;;;5048476;28;20017;-38
2021/01/13 15:49:43;;;;;;;3.83;0.50;;;19.20;64.40;;;;;;5048335;28;20045;-36
2021/01/13 15:52:16;;;;;;;0.95;0.45;;;19.20;64.20;;;;;;5046064;28;20513;-39
2021/01/13 15:54:41;;;;;;;0.60;0.60;;;19.20;64.70;;;;;;5048115;28;20039;-37
2021/01/13 15:57:07;;;;;;;1.73;0.50;;;19.20;64.70;;;;;;5049161;28;20025;-39
2021/01/13 15:59:32;;;;;;;0.75;0.45;;;19.20;65.40;;;;;;5048503;28;20119;-37
2021/01/13 16:01:58;;;;;;;0.75;0.52;;;19.20;64.60;;;;;;5029819;28;20044;-39
2021/01/13 16:04:24;;;;;;;1.55;0.90;;;19.20;64.50;;;;;;5045845;28;20028;-38
2021/01/13 16:06:50;;;;;;;0.60;0.50;;;19.20;64.40;;;;;;5046856;28;20055;-37
2021/01/13 16:09:15;;;;;;;1.75;0.55;;;19.20;64.20;;;;;;5049444;28;20037;-37
2021/01/13 16:11:42;;;;;;;5.35;0.60;;;19.20;64.20;;;;;;5045491;28;20025;-40
2021/01/13 16:14:07;;;;;;;1.98;0.70;;;19.20;64.30;;;;;;4699192;28;9999822;-51
2021/01/13 16:16:33;;;;;;;2.47;0.60;;;19.20;64.70;;;;;;5027568;28;20044;-49
2021/01/13 16:18:58;;;;;;;0.82;0.52;;;19.20;64.40;;;;;;5045139;28;20040;-48
2021/01/13 16:21:24;;;;;;;1.38;0.70;;;19.20;64.60;;;;;;5047278;28;20032;-46
2021/01/13 16:23:50;;;;;;;4.47;0.68;;;19.20;64.70;;;;;;5046645;28;20037;-46
2021/01/13 16:26:17;;;;;;;3.63;0.60;;;19.20;64.60;;;;;;5047530;28;20039;-51
2021/01/13 16:28:43;;;;;;;1.58;0.60;;;19.20;64.60;;;;;;5047869;28;20033;-42
2021/01/13 16:31:08;;;;;;;1.08;0.38;;;19.20;64.30;;;;;;5045944;28;20043;-47
2021/01/13 16:33:44;;;;;;;1.20;0.40;;;19.20;64.50;;;;;;5044340;28;20039;-47
2021/01/13 16:36:18;;;;;;;0.63;0.57;;;19.20;64.50;;;;;;5039984;28;20021;-46
2021/01/13 16:38:44;;;;;;;0.82;0.60;;;19.20;64.50;;;;;;5049599;28;20029;-50
2021/01/13 16:41:10;;;;;;;2.42;0.40;;;19.20;64.60;;;;;;5052562;28;20036;-48
2021/01/13 16:43:36;;;;;;;0.77;0.55;;;19.10;64.50;;;;;;5048074;28;20488;-46
2021/01/13 16:46:06;;;;;;;0.60;0.40;;;19.20;64.30;;;;;;5049159;28;20075;-46
2021/01/13 16:48:31;;;;;;;3.28;0.95;;;19.20;63.80;;;;;;5048162;28;20045;-49
2021/01/13 16:50:58;;;;;;;0.80;0.63;;;19.20;64.00;;;;;;5047897;28;20519;-49
2021/01/13 16:53:24;;;;;;;1.13;0.60;;;19.20;63.90;;;;;;5047544;28;20029;-49
2021/01/13 16:55:49;;;;;;;2.53;0.77;;;19.10;64.00;;;;;;5049558;28;20021;-47
2021/01/13 16:58:21;;;;;;;1.20;0.50;;;19.10;63.80;;;;;;5048069;28;20028;-49
2021/01/13 17:00:48;;;;;;;2.33;0.47;;;19.10;63.80;;;;;;5046510;28;20029;-46
2021/01/13 17:03:16;;;;;;;0.93;0.50;;;19.10;63.80;;;;;;5042396;28;20108;-54
2021/01/13 17:05:42;;;;;;;1.23;0.70;;;19.20;63.70;;;;;;5035078;28;20040;-41
2021/01/13 17:08:07;;;;;;;1.10;0.50;;;19.20;63.60;;;;;;5049068;28;20033;-52
2021/01/13 17:10:34;;;;;;;4.97;0.50;;;19.20;64.30;;;;;;5048063;28;20090;-48
2021/01/13 17:13:00;;;;;;;0.88;0.40;;;19.20;64.20;;;;;;5047781;28;20036;-41
2021/01/13 17:15:26;;;;;;;2.17;0.52;;;19.20;64.20;;;;;;5048311;28;20040;-51
2021/01/13 17:17:53;;;;;;;0.63;0.35;;;19.30;64.10;;;;;;5048474;28;20394;-45
2021/01/13 17:20:20;;;;;;;2.40;0.60;;;19.30;63.90;;;;;;5048580;28;20036;-51
2021/01/13 17:22:46;;;;;;;0.98;0.55;;;19.30;64.10;;;;;;5049924;28;20748;-50
2021/01/13 17:25:13;;;;;;;0.85;0.40;;;19.30;63.80;;;;;;5047706;28;20029;-48
2021/01/13 17:27:44;;;;;;;0.47;0.43;;;19.30;63.60;;;;;;5047866;28;20040;-50
2021/01/13 17:30:15;;;;;;;1.77;0.40;;;19.40;63.50;;;;;;5047477;28;20053;-52
2021/01/13 17:32:40;;;;;;;1.17;0.45;;;19.40;63.30;;;;;;5048827;28;20032;-50
2021/01/13 17:35:08;;;;;;;3.55;0.57;;;19.40;63.20;;;;;;5046358;28;20498;-52
2021/01/13 17:37:34;;;;;;;0.90;0.50;;;19.50;63.40;;;;;;5041157;28;20552;-52
2021/01/13 17:40:01;;;;;;;0.93;0.82;;;19.40;62.50;;;;;;5045193;28;20044;-53
2021/01/13 17:42:26;;;;;;;2.70;0.93;;;19.40;63.20;;;;;;5046399;28;20044;-50
2021/01/13 17:44:52;;;;;;;2.70;2.50;;;19.40;63.00;;;;;;5044214;28;20021;-52
2021/01/13 17:47:22;;;;;;;4.82;3.42;;;19.40;62.50;;;;;;5049497;28;20496;-45
2021/01/13 17:49:56;;;;;;;3.72;2.97;;;19.50;63.10;;;;;;5049445;28;20068;-47
2021/01/13 17:52:23;;;;;;;3.45;2.60;;;19.40;63.20;;;;;;5042625;28;20064;-48
2021/01/13 17:54:52;;;;;;;4.80;3.92;;;19.40;62.70;;;;;;5038516;28;20051;-49
2021/01/13 17:57:19;;;;;;;12.27;8.77;;;19.40;62.40;;;;;;5036892;28;20021;-38
2021/01/13 17:59:45;;;;;;;11.85;7.60;;;19.40;62.80;;;;;;5035319;28;20033;-32
2021/01/13 18:02:22;;;;;;;12.00;8.05;;;19.40;62.40;;;;;;5046756;28;20021;-47
2021/01/13 18:05:12;;;;;;;8.73;7.28;;;19.40;62.30;;;;;;5045042;28;20029;-46
2021/01/13 18:07:41;;;;;;;8.80;7.10;;;19.40;62.30;;;;;;5045316;28;20473;-38
2021/01/13 18:10:14;;;;;;;19.58;12.35;;;19.30;62.20;;;;;;5044277;28;20036;-51
2021/01/13 18:12:40;;;;;;;11.63;8.82;;;19.40;62.80;;;;;;5044202;28;20505;-46
2021/01/13 18:15:11;;;;;;;9.93;7.90;;;19.40;62.50;;;;;;5043592;28;20025;-41
2021/01/13 18:17:37;;;;;;;9.60;6.78;;;19.40;62.40;;;;;;5044912;28;20554;-48
2021/01/13 18:20:06;;;;;;;11.02;8.23;;;19.50;62.60;;;;;;5046047;28;20029;-39
2021/01/13 18:22:32;;;;;;;11.82;8.68;;;19.50;62.10;;;;;;5042742;28;20654;-47
2021/01/13 18:24:58;;;;;;;13.07;8.90;;;19.60;62.00;;;;;;5044914;28;20032;-44
2021/01/13 18:27:23;;;;;;;37.20;21.63;;;19.60;61.90;;;;;;5044488;28;20025;-48
2021/01/13 18:29:49;;;;;;;31.48;19.83;;;19.60;62.90;;;;;;5044177;28;20033;-41
2021/01/13 18:32:14;;;;;;;39.95;23.02;;;19.60;63.40;;;;;;5048543;28;20104;-46
2021/01/13 18:34:40;;;;;;;38.22;23.15;;;19.60;63.70;;;;;;5042919;28;20083;-42
2021/01/13 18:37:09;;;;;;;43.28;23.70;;;19.60;64.00;;;;;;5045039;28;20711;-46
2021/01/13 18:39:38;;;;;;;41.78;22.98;;;19.60;63.80;;;;;;5043471;28;20152;-51
2021/01/13 18:42:04;;;;;;;34.75;21.00;;;19.60;64.20;;;;;;5037396;28;20043;-44
2021/01/13 18:44:29;;;;;;;30.52;19.33;;;19.70;64.00;;;;;;5037972;28;20033;-50
2021/01/13 18:46:55;;;;;;;31.45;18.67;;;19.70;63.40;;;;;;5042802;28;20399;-46
2021/01/13 18:49:21;;;;;;;39.92;22.83;;;19.80;63.60;;;;;;5038967;28;20045;-40
2021/01/13 18:51:46;;;;;;;42.70;22.05;;;19.80;64.00;;;;;;5042630;28;20028;-47
2021/01/13 18:54:13;;;;;;;36.45;23.45;;;19.80;64.00;;;;;;5046246;28;20071;-41
2021/01/13 18:56:39;;;;;;;35.70;21.95;;;19.80;63.80;;;;;;5044567;28;20504;-43
2021/01/13 18:59:05;;;;;;;32.70;20.52;;;19.80;63.30;;;;;;5047254;28;20037;-49
2021/01/13 19:01:31;;;;;;;34.08;19.90;;;20.00;62.60;;;;;;5045564;28;20503;-46
2021/01/13 19:03:57;;;;;;;30.90;19.63;;;20.10;62.30;;;;;;5043427;28;20033;-46
2021/01/13 19:06:24;;;;;;;29.30;19.83;;;20.10;62.00;;;;;;5041185;28;20106;-44
2021/01/13 19:08:50;;;;;;;35.53;19.75;;;20.10;62.00;;;;;;5045561;28;21080;-47
2021/01/13 19:11:16;;;;;;;32.28;18.73;;;20.10;62.00;;;;;;5043863;28;20118;-47
2021/01/13 19:13:41;;;;;;;33.08;19.48;;;20.10;62.20;;;;;;5041752;28;20021;-49
2021/01/13 19:16:09;;;;;;;30.35;20.27;;;20.00;62.00;;;;;;5041913;28;20021;-55
2021/01/13 19:18:35;;;;;;;32.47;20.30;;;20.00;62.00;;;;;;5040016;28;20032;-48
2021/01/13 19:21:00;;;;;;;33.65;20.25;;;20.00;61.90;;;;;;5037419;28;20032;-49
2021/01/13 19:23:26;;;;;;;33.13;21.65;;;20.10;61.70;;;;;;5039064;28;20032;-47